METAR Data
IDs: Format: Raw Decoded Include TAF

Data at: 0733 UTC 11 Dec 2018

PAVC 110656Z AUTO 28023G36KT 5SM -SN FEW020 BKN032 OVC040 M01/M04 A2914 RMK AO2 PK WND 27037/0635 UPE0559B29E42SNB0559E29B42 SLP874 P0000 T10061044 FZRANO
PAVC 110633Z AUTO 29021G30KT 6SM UP BR SCT006 BKN018 OVC027 M01/M03 A2913 RMK AO2 PK WND 29030/0625 UPE0559B29SNB0559E29 P0000 FZRANO
PAVC 110629Z AUTO 29020G30KT 3SM UP BR BKN006 BKN013 OVC019 M01/M03 A2913 RMK AO2 PK WND 29030/0625 UPE0559B29SNB0559E29 CIG 004V010 P0000 FZRANO
PAVC 110624Z AUTO 28021G29KT 1 1/4SM -SN BR BKN006 BKN009 OVC017 M02/M03 A2913 RMK AO2 PK WND 28029/0618 UPE0559SNB0559 P0000 FZRANO
PAVC 110613Z AUTO 27022G26KT 3/4SM -SN BR BKN006 BKN016 OVC024 M02/M03 A2914 RMK AO2 PK WND 27028/0602 UPE0559SNB0559 CIG 004V012 PRESRR P0000 FZRANO
PAVC 110604Z AUTO 27022G28KT 3/4SM -SN BR SCT006 BKN016 OVC032 M01/M03 A2913 RMK AO2 PK WND 27028/0602 UPE0559SNB0559 PRESRR P0000 FZRANO
PAVC 110600Z AUTO 27022G30KT 1 1/2SM -SN FEW008 BKN024 OVC032 M01/M04 A2912 RMK AO2 PK WND 27026/0559 UPE0559SNB0559 PRESRR P0000 FZRANO
PAVC 110556Z AUTO 28019G34KT 3SM UP FEW016 BKN024 OVC032 M01/M04 A2912 RMK AO2 PK WND 29036/0544 UPE18B45SNB36E45 SLP864 P0000 60000 T10061039 10011 21011 51045 FZRANO
PAVC 110454Z AUTO 27018G34KT 4SM UP SCT012 BKN023 OVC036 00/M04 A2907 RMK AO2 PK WND 27035/0425 UPB22E32B49SNE22B32E49 SLP847 P0000 T00001039 FZRANO
PAVC 110453Z AUTO 28015G34KT 3SM UP SCT012 BKN023 OVC039 00/M04 A2907 RMK AO2 PK WND 27035/0425 UPB22E32B49SNE22B32E49 P0000 FZRANO
PAVC 110442Z AUTO 28022G33KT 1 1/4SM -SN BR SCT010 BKN015 OVC030 M01/M03 A2906 RMK AO2 PK WND 27035/0425 UPB22E32SNE22B32 P0000 FZRANO
PAVC 110434Z AUTO 27027G35KT 1 1/4SM -SN BR BKN010 BKN015 OVC027 M01/M03 A2905 RMK AO2 PK WND 27035/0425 UPB22E32SNE22B32 CIG 008V013 P0000 FZRANO
PAVC 110429Z AUTO 28025G35KT 2 1/2SM UP BR SCT010 BKN015 OVC027 M01/M03 A2905 RMK AO2 PK WND 27035/0425 VIS 1 1/4V5 UPB22SNE22 P0000 FZRANO
PAVC 110423Z AUTO 28023G35KT 5SM UP SCT010 BKN015 OVC029 M01/M03 A2905 RMK AO2 PK WND 26035/0419 UPB22SNE22 P0000 FZRANO
PAVC 110405Z AUTO 28023G29KT 2 1/2SM -SN BR BKN013 BKN023 OVC030 M01/M03 A2904 RMK AO2 PK WND 27029/0359 VIS 1V4 P0000 FZRANO
PAVC 110356Z AUTO 27021G37KT 1 3/4SM -SN FEW010 BKN015 OVC027 M01/M03 A2904 RMK AO2 PK WND 28037/0348 VIS 1V4 UPE15SNB15 SLP839 P0000 T10061033 FZRANO
PAVC 110348Z AUTO 28024G37KT 2 1/2SM -SN BR BKN014 BKN020 OVC025 M01/M03 A2903 RMK AO2 PK WND 28037/0348 VIS 1 1/2V4 UPE15SNB15 P0000 FZRANO
PAVC 110341Z AUTO 26018G25KT 1 3/4SM -SN BR FEW014 BKN018 OVC035 M01/M03 A2903 RMK AO2 PK WND 27035/0317 UPE15SNB15 P0000 FZRANO
PAVC 110326Z AUTO 27020G35KT 2 1/2SM -SN FEW019 BKN024 OVC034 M01/M04 A2902 RMK AO2 PK WND 27035/0317 UPE15SNB15 PRESRR P0000 FZRANO
PAVC 110256Z AUTO 27027G37KT 5SM UP BKN031 OVC042 M01/M04 A2898 RMK AO2 PK WND 27041/0243 SLP819 P0000 60000 T10061044 51059 FZRANO
PAVC 110221Z AUTO 29026G36KT 4SM UP SCT031 OVC042 00/M03 A2896 RMK AO2 PK WND 29036/0216 P0000 FZRANO
PAVC 110211Z AUTO 28025G32KT 2 1/2SM UP FEW022 BKN037 OVC045 00/M03 A2896 RMK AO2 PK WND 29032/0210 VIS 1 3/4V3 P0000 FZRANO
PAVC 110201Z AUTO 29025G35KT 3SM UP FEW022 BKN034 OVC042 00/M03 A2895 RMK AO2 PK WND 27031/0159 P0000 FZRANO
PAVC 110156Z AUTO 29022G35KT 2 1/2SM UP SCT021 BKN029 OVC037 00/M03 A2895 RMK AO2 PK WND 27035/0154 RAB11E42UPB42SNE11 SLP808 P0000 T00001028 FZRANO
PAVC 110152Z AUTO 28024G32KT 2 1/2SM UP FEW017 BKN031 OVC042 00/M03 A2894 RMK AO2 PK WND 30035/0118 RAB11E42UPB42SNE11 P0000 FZRANO
PAVC 110144Z AUTO 28022G31KT 3SM UP SCT017 BKN025 OVC042 01/M03 A2894 RMK AO2 PK WND 30035/0118 RAB11E42UPB42SNE11 P0000 FZRANO
PAVC 110107Z AUTO 27025G31KT 1 1/4SM -SN BR FEW007 BKN015 OVC026 01/M01 A2890 RMK AO2 PK WND 27031/0107 P0000 FZRANO
PAVC 110056Z AUTO 29021G33KT 1SM -SN BR FEW009 BKN015 OVC027 01/M01 A2889 RMK AO2 PK WND 27042/0002 VIS 1/2V5 RAE01SNB01 SLP789 P0000 T00111011 FZRANO
PAVC 110052Z AUTO 28021G33KT 1SM -SN SCT009 BKN015 OVC022 01/M02 A2889 RMK AO2 PK WND 27042/0002 VIS 1/2V2 RAE01SNB01 PRESRR P0000 FZRANO
PAVC 110047Z AUTO 28027G37KT 1SM -SN BR BKN011 OVC019 01/M01 A2888 RMK AO2 PK WND 27042/0002 RAE01SNB01 P0000 FZRANO
PAVC 110045Z AUTO 28020G37KT 3/4SM -SN SCT011 OVC015 01/M02 A2888 RMK AO2 PK WND 27042/0002 RAE01SNB01 PRESRR P0000 FZRANO
PAVC 110036Z AUTO 29024G35KT 1SM -SN BR SCT010 BKN015 OVC020 01/M01 A2886 RMK AO2 PK WND 27042/0002 RAE01SNB01 PRESRR P0000 FZRANO
PAVC 110008Z AUTO 28020G42KT 250V320 3/4SM -SN BR BKN010 BKN016 OVC024 01/M01 A2883 RMK AO2 PK WND 27042/0002 RAE01SNB01 CIG 007V013 PRESRR P0000 FZRANO
PAVC 110000Z AUTO 28028G38KT 1 1/2SM -RA SCT010 BKN015 OVC022 02/M01 A2881 RMK AO2 PK WND 27038/2359 P0000 FZRANO
PAVC 102356Z AUTO 30027G46KT 3SM -RA SCT013 OVC022 02/M01 A2881 RMK AO2 PK WND 28046/2347 UPB05E20SNB28E37 SLP760 P0001 60001 T00171011 10022 21022 53029 FZRANO
PAVC 102321Z AUTO 30013G24KT 9SM -RA SCT013 BKN019 OVC031 02/M01 A2877 RMK AO2 PK WND 27032/2300 UPB05E20 P0001 FZRANO
PAVC 102256Z AUTO 27022G40KT 6SM -RA BR BKN012 OVC019 02/00 A2874 RMK AO2 PK WND 25040/2250 UPB04E10 SLP736 P0000 T00170000 FZRANO
PAVC 102251Z AUTO 25031G40KT 7SM -RA BKN012 BKN019 OVC024 02/01 A2870 RMK AO2 PK WND 25040/2250 UPB04E10 P0000 FZRANO
PAVC 102156Z AUTO 27017KT 10SM -RA SCT016 BKN020 OVC026 02/M01 A2872 RMK AO2 PK WND 26026/2142 UPB09E13 SLP730 P0000 T00171006 FZRANO
PAVC 102123Z AUTO 27019G23KT 7SM -RA BKN016 BKN021 OVC039 01/M01 A2871 RMK AO2 UPB09E13 P0000 FZRANO
PAVC 102109Z AUTO 28016G19KT 7SM UP FEW003 SCT023 OVC041 01/M01 A2871 RMK AO2 RAE09UPB09 P0000 FZRANO
PAVC 102056Z AUTO 27013G17KT 10SM -RA FEW036 BKN043 OVC055 01/M01 A2871 RMK AO2 RAB32 SLP726 P0000 60000 T00111006 53015 FZRANO
PAVC 101956Z AUTO 30003KT 10SM SCT060 M01/M02 A2868 RMK AO2 SLP718 T10061022 FZRANO
PAVC 101856Z AUTO 26006KT 10SM SCT035 M02/M03 A2867 RMK AO2 SLP713 T10171028 FZRANO
PAVC 101756Z AUTO 00000KT 10SM FEW035 M01/M03 A2866 RMK AO2 SLP710 60000 T10111033 10011 21011 55005 FZRANO
PAVC 101656Z AUTO 27004KT 10SM SCT032 M01/M02 A2866 RMK AO2 SLP709 T10061022 FZRANO
PAVC 101556Z AUTO 24007KT 10SM CLR 00/M02 A2867 RMK AO2 SLP712 T00001017 FZRANO
PAVC 101456Z AUTO 25007KT 10SM FEW049 01/M01 A2868 RMK AO2 SLP715 60000 T00111011 50007 FZRANO
PAVC 101356Z AUTO 25007KT 10SM CLR 01/M01 A2868 RMK AO2 RAE07 SLP716 P0000 T00061006 FZRANO
PAVC 101311Z AUTO 22014G17KT 10SM SCT019 SCT030 OVC100 01/00 A2867 RMK AO2 RAE07 P0000 FZRANO
PAVC 101256Z AUTO 24011KT 10SM -RA BKN017 BKN022 OVC032 01/M01 A2867 RMK AO2 UPB1158E08RAB08E20B39SNE1158B20E39 SLP714 P0000 T00061006 FZRANO
PAVC 101156Z AUTO 23013KT 9SM -SN FEW010 BKN025 OVC035 00/M01 A2866 RMK AO2 UPE08RAB08E16SNB16 SLP708 P0000 60018 70085 T00001006 10006 20000 53020 FZRANO
PAVC 101147Z AUTO 24012KT 6SM -SN BR SCT008 BKN016 OVC046 00/M01 A2866 RMK AO2 UPE08RAB08E16SNB16 CIG 011V022 P0000 FZRANO
PAVC 101142Z AUTO 24012KT 3SM -SN BR BKN008 BKN014 OVC021 00/M01 A2865 RMK AO2 UPE08RAB08E16SNB16 CIG 005V012 P0000 FZRANO
PAVC 101138Z AUTO 25013G20KT 1 3/4SM -SN BR BKN008 OVC014 00/M01 A2865 RMK AO2 UPE08RAB08E16SNB16 CIG 005V011 P0000 FZRANO
PAVC 101130Z AUTO 26015G23KT 1SM -SN BR BKN008 BKN012 OVC023 00/M01 A2865 RMK AO2 UPE08RAB08E16SNB16 P0000 FZRANO
PAVC 101123Z AUTO 26018G22KT 1SM -SN BR SCT008 BKN012 OVC034 01/M01 A2864 RMK AO2 UPE08RAB08E16SNB16 P0000 FZRANO
PAVC 101121Z AUTO 26017G22KT 1 1/4SM -SN BR BKN008 BKN024 OVC034 01/M01 A2864 RMK AO2 UPE08RAB08E16SNB16 CIG 006V014 P0000 FZRANO
PAVC 101119Z AUTO 26016G22KT 1 3/4SM -SN BR SCT010 BKN024 OVC034 01/M01 A2864 RMK AO2 UPE08RAB08E16SNB16 P0000 FZRANO
PAVC 101116Z AUTO 26018G22KT 3SM -SN BR FEW010 BKN024 OVC070 01/M01 A2864 RMK AO2 UPE08RAB08E16SNB16 P0000 FZRANO
PAVC 101056Z AUTO 27012KT 10SM UP FEW021 BKN036 OVC070 00/00 A2863 RMK AO2 UPB51SNE51 SLP698 P0000 T00000000 FZRANO
PAVC 101023Z AUTO 24012KT 3SM -SN BR SCT008 BKN015 OVC021 00/00 A2862 RMK AO2 P0000 FZRANO
PAVC 101012Z AUTO 26011KT 1 3/4SM -SN BR BKN008 OVC013 00/00 A2862 RMK AO2 CIG 006V010 P0000 FZRANO
PAVC 101002Z AUTO 26013KT 1SM -SN BR OVC008 00/00 A2862 RMK AO2 CIG 006V012 P0000 FZRANO
PAVC 100956Z AUTO 25014KT 1 3/4SM -SN BR OVC010 00/00 A2862 RMK AO2 CIG 007V012 SLP695 P0001 T00000000 FZRANO
PAVC 100952Z AUTO 25014KT 2SM -SN BR BKN010 OVC014 00/00 A2861 RMK AO2 VIS 1 1/4V3 CIG 007V012 P0000 FZRANO
PAVC 100945Z AUTO 25013KT 1 3/4SM -SN BR BKN008 OVC014 00/00 A2861 RMK AO2 VIS 1 1/4V3 P0000 FZRANO
PAVC 100934Z AUTO 25015KT 2 1/2SM -SN BR SCT008 OVC014 00/00 A2860 RMK AO2 VIS 1 3/4V4 P0000 FZRANO
PAVC 100923Z AUTO 24016G23KT 2 1/2SM -SN BR SCT008 BKN016 OVC050 00/00 A2860 RMK AO2 P0000 FZRANO
PAVC 100914Z AUTO 23017KT 3SM -SN BR BKN008 BKN012 OVC018 00/00 A2860 RMK AO2 CIG 005V009 P0000 FZRANO
PAVC 100912Z AUTO 23016KT 2 1/2SM -SN BR SCT006 BKN012 OVC018 00/00 A2860 RMK AO2 P0000 FZRANO
PAVC 100856Z AUTO 25015KT 2 1/2SM -SN BR FEW006 OVC016 00/00 A2860 RMK AO2 UPB0758E12B31E44SNE0758B12E31B44 SLP689 P0002 60017 T00000000 400440000 56039 FZRANO
PAVC 100556Z AUTO 21012KT 5SM -SN BR OVC013 01/00 A2871 RMK AO2 RAE02SNB02 SLP727 P0023 60057 T00060000 10044 20006 55022 FZRANO
PAVC 100553Z AUTO 22009KT 4SM -SN BR OVC013 01/00 A2871 RMK AO2 RAE02SNB02 P0022 FZRANO
PAVC 100541Z AUTO 20012KT 2 1/2SM -SN BR OVC011 01/00 A2873 RMK AO2 RAE02SNB02 P0018 FZRANO
PAVC 100510Z AUTO 21012KT 4SM -SN BR BKN013 OVC018 02/01 A2874 RMK AO2 RAE02SNB02 P0006 FZRANO
PAVC 100456Z AUTO 22012G19KT 6SM RA BR SCT012 BKN017 OVC021 02/01 A2875 RMK AO2 PK WND 19033/0410 SLP741 P0014 T00220006 FZRANO
PAVC 100356Z AUTO 18017G30KT 9SM -RA BKN017 OVC024 04/02 A2878 RMK AO2 PK WND 19034/0337 SLP749 P0003 T00390022
PAVC 100256Z AUTO 23007G22KT 6SM -RA BR FEW009 OVC015 02/02 A2881 RMK AO2 RAE04B56UPB04E15SNB15E56 SLP761 P0009 60017 T00220017 58041 FZRANO
PAVC 100249Z AUTO 18010G21KT 130V210 3SM -SN BR BKN013 OVC017 01/01 A2882 RMK AO2 RAE04UPB04E15SNB15 P0008 FZRANO
PAVC 100235Z AUTO 01004KT 1 1/2SM -SN BR OVC011 01/00 A2883 RMK AO2 RAE04UPB04E15SNB15 P0006 FZRANO
PAVC 100222Z AUTO 36005KT 2SM -SN BR OVC013 01/00 A2885 RMK AO2 RAE04UPB04E15SNB15 P0004 FZRANO
PAVC 100213Z AUTO 36006KT 3SM UP BR OVC013 01/00 A2885 RMK AO2 RAE04UPB04 P0002 FZRANO
PAVC 100156Z AUTO 00000KT 5SM -RA BR OVC015 02/01 A2887 RMK AO2 SLP780 P0008 T00220006 FZRANO
PAVC 100056Z AUTO 19013G21KT 9SM -RA SCT016 BKN022 OVC046 03/01 A2890 RMK AO2 RAB13 SLP793 P0000 T00330006
PAVC 100036Z AUTO 23008KT 10SM -RA SCT016 BKN021 OVC045 03/01 A2891 RMK AO2 RAB13 P0000
PAVC 092356Z AUTO 23012G18KT 10SM BKN038 BKN047 OVC090 04/M02 A2893 RMK AO2 SLP802 60000 T00441022 10044 20028 58022
PAVC 092256Z AUTO 26007KT 210V310 10SM OVC036 04/M02 A2896 RMK AO2 SLP812 T00391022
PAVC 092156Z AUTO 23009KT 10SM SCT032 OVC055 03/M02 A2899 RMK AO2 SLP822 T00331022
PAVC 092056Z AUTO 21013KT 10SM OVC038 03/M01 A2900 RMK AO2 SLP825 60000 T00281011 51018
PAVC 091956Z AUTO 23011KT 10SM SCT037 BKN044 03/M02 A2898 RMK AO2 SLP819 T00281022